createdAt,value
2022-09-17T00:01:16.493Z,59.30
2022-09-17T00:03:45.417Z,58.80
2022-09-17T00:06:13.900Z,59.40
2022-09-17T00:08:43.809Z,59.90
2022-09-17T00:11:14.932Z,59.70
2022-09-17T00:13:43.091Z,59.50
2022-09-17T00:16:11.821Z,59.80
2022-09-17T00:18:41.847Z,59.90
2022-09-17T00:21:17.353Z,60.00
2022-09-17T00:23:47.066Z,60.40
2022-09-17T00:26:15.307Z,60.40
2022-09-17T00:28:45.381Z,60.40
2022-09-17T00:31:13.298Z,60.00
2022-09-17T00:33:41.085Z,60.40
2022-09-17T00:36:09.313Z,59.10
2022-09-17T00:38:37.257Z,60.00
2022-09-17T00:41:07.051Z,60.90
2022-09-17T00:43:40.637Z,61.10
2022-09-17T00:46:20.849Z,60.80
2022-09-17T00:48:49.121Z,60.90
2022-09-17T00:51:21.593Z,60.80
2022-09-17T00:53:49.739Z,61.30
2022-09-17T00:56:24.037Z,61.20
2022-09-17T00:58:53.035Z,61.20
2022-09-17T01:01:20.904Z,61.80
2022-09-17T01:03:49.215Z,61.30
2022-09-17T01:06:26.317Z,61.60
2022-09-17T01:09:08.562Z,61.20
2022-09-17T01:11:53.644Z,60.90
2022-09-17T01:14:37.783Z,61.10
2022-09-17T01:17:16.034Z,61.40
2022-09-17T01:20:16.795Z,61.80
2022-09-17T01:22:54.849Z,61.20
2022-09-17T01:25:24.944Z,60.70
2022-09-17T01:28:18.684Z,61.00
2022-09-17T01:31:31.381Z,60.90
2022-09-17T01:34:06.023Z,61.70
2022-09-17T01:36:42.984Z,60.40
2022-09-17T01:39:18.539Z,60.60
2022-09-17T01:41:54.041Z,59.90
2022-09-17T01:44:27.466Z,59.50
2022-09-17T01:47:02.456Z,59.20
2022-09-17T01:49:33.648Z,58.80
2022-09-17T01:52:02.756Z,59.00
2022-09-17T01:54:37.144Z,58.70
2022-09-17T01:57:13.963Z,58.40
2022-09-17T01:59:46.760Z,58.10
2022-09-17T02:02:27.480Z,58.90
2022-09-17T02:04:59.504Z,58.70
2022-09-17T02:07:27.796Z,57.80
2022-09-17T02:10:01.036Z,58.20
2022-09-17T02:12:33.092Z,57.90
2022-09-17T02:15:03.926Z,57.60
2022-09-17T02:17:38.197Z,57.50
2022-09-17T02:20:07.648Z,56.80
2022-09-17T02:22:40.858Z,56.60
2022-09-17T02:25:16.601Z,56.40
2022-09-17T02:27:51.959Z,56.40
2022-09-17T02:30:19.788Z,56.20
2022-09-17T02:32:49.771Z,55.80
2022-09-17T02:35:18.164Z,55.70
2022-09-17T02:37:46.440Z,55.70
2022-09-17T02:40:16.225Z,55.80
2022-09-17T02:42:58.356Z,55.40
2022-09-17T02:45:35.984Z,54.50
2022-09-17T02:48:17.704Z,54.70
2022-09-17T02:51:06.886Z,53.20
2022-09-17T02:53:40.647Z,54.20
2022-09-17T02:56:15.280Z,54.70
2022-09-17T02:58:50.751Z,54.70
2022-09-17T03:01:24.032Z,55.30
2022-09-17T03:03:55.685Z,55.30
2022-09-17T03:06:23.992Z,54.70
2022-09-17T03:08:52.875Z,54.70
2022-09-17T03:11:21.559Z,54.80
2022-09-17T03:13:49.531Z,54.30
2022-09-17T03:16:17.433Z,54.70
2022-09-17T03:18:45.291Z,54.90
2022-09-17T03:21:14.384Z,55.00
2022-09-17T03:23:42.502Z,53.80
2022-09-17T03:26:10.273Z,53.30
2022-09-17T03:28:38.035Z,53.40
2022-09-17T03:31:06.342Z,53.30
2022-09-17T03:33:34.732Z,53.30
2022-09-17T03:36:03.124Z,53.50
2022-09-17T03:38:34.075Z,53.50
2022-09-17T03:41:03.017Z,53.30
2022-09-17T03:43:31.106Z,53.70
2022-09-17T03:45:59.012Z,53.70
2022-09-17T03:48:26.799Z,53.50
2022-09-17T03:50:54.562Z,53.60
2022-09-17T03:53:22.367Z,54.10
2022-09-17T03:55:51.614Z,54.50
2022-09-17T03:58:19.380Z,54.50
2022-09-17T04:00:53.033Z,54.80
2022-09-17T04:03:21.344Z,55.00
2022-09-17T04:05:49.452Z,55.30
2022-09-17T04:08:17.469Z,55.60
2022-09-17T04:10:46.099Z,55.30
2022-09-17T04:13:16.689Z,55.00
2022-09-17T04:15:45.344Z,54.80
2022-09-17T04:18:13.872Z,54.50
2022-09-17T04:20:41.639Z,54.20
2022-09-17T04:23:11.036Z,52.90
2022-09-17T04:25:38.845Z,52.70
2022-09-17T04:28:06.693Z,52.60
2022-09-17T04:30:35.801Z,52.80
2022-09-17T04:33:03.588Z,53.40
2022-09-17T04:35:31.587Z,53.20
2022-09-17T04:37:59.487Z,52.70
2022-09-17T04:40:28.229Z,53.10
2022-09-17T04:42:56.797Z,53.20
2022-09-17T04:45:24.901Z,52.60
2022-09-17T04:47:54.041Z,52.30
2022-09-17T04:50:23.084Z,52.30
2022-09-17T04:52:50.956Z,52.80
2022-09-17T04:55:18.870Z,52.90
2022-09-17T04:57:50.401Z,52.80
2022-09-17T05:00:19.539Z,52.90
2022-09-17T05:02:50.106Z,52.90
2022-09-17T05:05:20.260Z,53.20
2022-09-17T05:07:48.288Z,53.20
2022-09-17T05:10:18.279Z,53.30
2022-09-17T05:12:49.627Z,53.30
2022-09-17T05:15:18.080Z,53.10
2022-09-17T05:17:45.894Z,53.00
2022-09-17T05:20:14.482Z,53.40
2022-09-17T05:22:45.487Z,53.40
2022-09-17T05:25:14.147Z,54.80
2022-09-17T05:27:42.155Z,55.00
2022-09-17T05:30:11.922Z,55.50
2022-09-17T05:32:40.652Z,55.50
2022-09-17T05:35:09.805Z,55.40
2022-09-17T05:37:38.391Z,55.30
2022-09-17T05:40:09.565Z,55.30
2022-09-17T05:42:37.397Z,55.30
2022-09-17T05:45:06.382Z,55.60
2022-09-17T05:47:35.248Z,55.60
2022-09-17T05:50:03.036Z,55.60
2022-09-17T05:52:30.934Z,56.10
2022-09-17T05:54:58.745Z,56.30
2022-09-17T05:57:30.339Z,57.20
2022-09-17T05:59:58.075Z,57.60
2022-09-17T06:02:25.925Z,58.90
2022-09-17T06:04:53.739Z,59.20
2022-09-17T06:07:21.544Z,58.40
2022-09-17T06:09:49.307Z,59.30
2022-09-17T06:12:17.131Z,58.70
2022-09-17T06:14:46.196Z,57.40
2022-09-17T06:17:13.908Z,57.70
2022-09-17T06:19:41.729Z,57.70
2022-09-17T06:22:09.825Z,58.90
2022-09-17T06:24:37.657Z,58.00
2022-09-17T06:27:05.660Z,57.70
2022-09-17T06:29:33.402Z,57.60
2022-09-17T06:32:02.793Z,57.30
2022-09-17T06:34:30.553Z,57.50
2022-09-17T06:36:58.294Z,57.10
2022-09-17T06:39:26.115Z,57.10
2022-09-17T06:41:53.872Z,57.10
2022-09-17T06:44:21.627Z,57.40
2022-09-17T06:46:51.095Z,57.20
2022-09-17T06:49:20.440Z,56.50
2022-09-17T06:51:48.180Z,56.70
2022-09-17T06:54:15.959Z,57.00
2022-09-17T06:56:43.870Z,57.00
2022-09-17T06:59:11.616Z,58.10
2022-09-17T07:01:39.424Z,57.60
2022-09-17T07:04:07.447Z,57.30
2022-09-17T07:06:36.549Z,57.20
2022-09-17T07:09:09.101Z,56.80
2022-09-17T07:11:38.592Z,56.60
2022-09-17T07:14:06.856Z,56.10
2022-09-17T07:16:36.762Z,56.20
2022-09-17T07:19:05.460Z,55.50
2022-09-17T07:21:33.223Z,54.60
2022-09-17T07:24:03.484Z,54.20
2022-09-17T07:26:31.273Z,54.50
2022-09-17T07:28:59.520Z,54.70
2022-09-17T07:31:27.399Z,54.40
2022-09-17T07:33:55.152Z,54.30
2022-09-17T07:36:23.135Z,53.90
2022-09-17T07:38:50.859Z,54.10
2022-09-17T07:41:19.988Z,53.50
2022-09-17T07:43:47.789Z,53.00
2022-09-17T07:46:17.583Z,54.00
2022-09-17T07:48:46.308Z,54.40
2022-09-17T07:51:17.268Z,54.50
2022-09-17T07:53:45.611Z,54.70
2022-09-17T07:56:13.477Z,55.20
2022-09-17T07:58:42.887Z,55.00
2022-09-17T08:01:12.127Z,55.70
2022-09-17T08:03:40.908Z,55.40
2022-09-17T08:06:10.847Z,56.30
2022-09-17T08:08:40.117Z,55.90
2022-09-17T08:11:09.950Z,55.40
2022-09-17T08:13:38.053Z,55.50
2022-09-17T08:16:09.617Z,55.70
2022-09-17T08:18:37.508Z,56.10
2022-09-17T08:21:06.987Z,56.40
2022-09-17T08:23:36.771Z,57.60
2022-09-17T08:26:06.011Z,57.70
2022-09-17T08:28:34.093Z,58.50
2022-09-17T08:31:03.400Z,58.50
2022-09-17T08:33:33.928Z,58.40
2022-09-17T08:36:02.365Z,58.60
2022-09-17T08:38:37.216Z,58.40
2022-09-17T08:41:20.544Z,58.40
2022-09-17T08:43:55.971Z,57.60
2022-09-17T08:46:25.489Z,57.50
2022-09-17T08:49:03.111Z,57.00
2022-09-17T08:51:41.720Z,56.90
2022-09-17T08:54:16.285Z,57.70
2022-09-17T08:56:46.637Z,57.70
2022-09-17T08:59:26.309Z,56.40
2022-09-17T09:02:01.115Z,56.90
2022-09-17T09:04:47.227Z,56.60
2022-09-17T09:07:21.115Z,56.50
2022-09-17T09:09:53.970Z,56.80
2022-09-17T09:12:26.994Z,57.70
2022-09-17T09:15:00.473Z,57.10
2022-09-17T09:17:33.405Z,56.60
2022-09-17T09:22:50.615Z,55.40
2022-09-17T09:25:24.816Z,55.80
2022-09-17T09:28:03.983Z,55.50
2022-09-17T09:30:44.408Z,55.00
2022-09-17T09:33:15.669Z,54.90
2022-09-17T09:35:44.864Z,54.80
2022-09-17T09:38:21.727Z,54.70
2022-09-17T09:40:54.508Z,54.30
2022-09-17T09:43:32.759Z,54.50
2022-09-17T09:46:44.306Z,54.80
2022-09-17T09:49:23.335Z,55.10
2022-09-17T09:52:04.194Z,55.10
2022-09-17T09:54:44.793Z,55.10
2022-09-17T09:57:14.961Z,54.90
2022-09-17T09:59:42.781Z,55.50
2022-09-17T10:02:11.263Z,55.70
2022-09-17T10:04:39.218Z,55.60
2022-09-17T10:07:08.409Z,55.70
2022-09-17T10:09:39.165Z,55.50
2022-09-17T10:12:18.889Z,55.70
2022-09-17T10:14:47.699Z,55.50
2022-09-17T10:17:23.387Z,54.80
2022-09-17T10:20:19.311Z,53.60
2022-09-17T10:22:50.058Z,51.10
2022-09-17T10:25:30.424Z,51.60
2022-09-17T10:28:00.011Z,52.80
2022-09-17T10:30:28.320Z,52.20
2022-09-17T10:33:17.367Z,51.80
2022-09-17T10:35:57.052Z,51.10
2022-09-17T10:38:32.917Z,52.20
2022-09-17T10:41:21.639Z,51.90
2022-09-17T10:43:50.499Z,53.30
2022-09-17T10:46:26.787Z,53.60
2022-09-17T10:49:11.126Z,53.60
2022-09-17T10:51:40.083Z,54.20
2022-09-17T10:54:34.009Z,54.00
2022-09-17T10:57:04.864Z,53.70
2022-09-17T10:59:57.948Z,53.80
2022-09-17T11:02:48.643Z,53.70
2022-09-17T11:05:34.923Z,54.50
2022-09-17T11:08:09.223Z,53.40
2022-09-17T11:10:45.298Z,53.10
2022-09-17T11:13:24.548Z,52.60
2022-09-17T11:16:08.042Z,50.10
2022-09-17T11:18:41.952Z,49.60
2022-09-17T11:21:23.361Z,49.70
2022-09-17T11:24:19.003Z,49.70
2022-09-17T11:26:54.857Z,50.10
2022-09-17T11:29:56.163Z,48.60
2022-09-17T11:32:40.360Z,49.10
2022-09-17T11:35:12.362Z,50.40
2022-09-17T11:37:48.932Z,51.50
2022-09-17T11:40:23.027Z,51.80
2022-09-17T11:42:54.875Z,51.80
2022-09-17T11:45:28.399Z,52.20
2022-09-17T11:48:04.485Z,51.90
2022-09-17T11:50:37.015Z,52.00
2022-09-17T11:53:13.099Z,51.40
2022-09-17T11:55:47.350Z,50.90
2022-09-17T11:58:21.385Z,51.30
2022-09-17T12:00:55.981Z,51.10
2022-09-17T12:03:32.286Z,51.30
2022-09-17T12:06:04.572Z,52.10
2022-09-17T12:08:41.910Z,51.40
2022-09-17T12:11:15.104Z,50.80
2022-09-17T12:13:46.757Z,49.70
2022-09-17T12:16:21.879Z,49.90
2022-09-17T12:18:58.272Z,49.60
2022-09-17T12:21:30.854Z,49.90
2022-09-17T12:24:04.417Z,48.90
2022-09-17T12:26:45.972Z,48.40
2022-09-17T12:29:31.113Z,46.90
2022-09-17T12:32:04.876Z,47.60
2022-09-17T12:34:45.499Z,47.70
2022-09-17T12:37:18.865Z,47.40
2022-09-17T12:40:11.035Z,47.80
2022-09-17T12:42:54.590Z,45.50
2022-09-17T12:45:40.200Z,47.20
2022-09-17T12:48:43.961Z,44.20
2022-09-17T12:51:26.747Z,43.70
2022-09-17T12:54:04.382Z,45.40
2022-09-17T12:56:47.024Z,45.90
2022-09-17T12:59:34.312Z,45.20
2022-09-17T13:02:05.565Z,44.80
2022-09-17T13:05:01.700Z,45.20
2022-09-17T13:08:03.383Z,45.20
2022-09-17T13:10:47.813Z,44.00
2022-09-17T13:13:30.869Z,43.90
2022-09-17T13:16:06.092Z,42.90
2022-09-17T13:18:59.457Z,42.60
2022-09-17T13:21:40.413Z,43.40
2022-09-17T13:24:16.934Z,44.40
2022-09-17T13:26:46.009Z,44.20
2022-09-17T13:29:14.572Z,44.00
2022-09-17T13:31:48.917Z,44.00
2022-09-17T13:34:31.189Z,44.60
2022-09-17T13:37:01.355Z,44.70
2022-09-17T13:39:41.647Z,44.40
2022-09-17T13:42:15.031Z,44.30
2022-09-17T13:44:46.739Z,44.90
2022-09-17T13:47:19.492Z,45.10
2022-09-17T13:49:51.957Z,45.60
2022-09-17T13:52:44.444Z,45.90
2022-09-17T13:55:35.165Z,45.50
2022-09-17T13:58:07.239Z,45.10
2022-09-17T14:00:54.114Z,45.90
2022-09-17T14:03:49.995Z,45.50
2022-09-17T14:06:51.431Z,44.50
2022-09-17T14:09:51.231Z,44.60
2022-09-17T14:13:10.902Z,44.60
2022-09-17T14:15:58.018Z,45.00
2022-09-17T14:18:40.083Z,44.80
2022-09-17T14:21:19.353Z,45.00
2022-09-17T14:23:51.589Z,45.20
2022-09-17T14:26:43.816Z,45.30
2022-09-17T14:29:25.561Z,44.40
2022-09-17T14:31:53.636Z,43.80
2022-09-17T14:34:24.268Z,44.10
2022-09-17T14:36:53.498Z,43.60
2022-09-17T14:39:24.130Z,43.10
2022-09-17T14:41:55.397Z,43.70
2022-09-17T14:44:26.527Z,44.30
2022-09-17T14:46:59.614Z,44.50
2022-09-17T14:49:29.589Z,44.40
2022-09-17T14:51:58.443Z,44.10
2022-09-17T14:54:27.207Z,44.30
2022-09-17T14:56:59.243Z,45.40
2022-09-17T14:59:42.182Z,45.70
2022-09-17T15:02:32.868Z,46.00
2022-09-17T15:05:01.984Z,46.00
2022-09-17T15:07:30.930Z,46.50
2022-09-17T15:10:10.109Z,45.80
2022-09-17T15:12:39.594Z,46.70
2022-09-17T15:15:12.540Z,49.00
2022-09-17T15:17:43.565Z,49.70
2022-09-17T15:20:17.815Z,50.20
2022-09-17T15:22:51.000Z,50.70
2022-09-17T15:25:23.955Z,51.30
2022-09-17T15:27:56.119Z,51.10
2022-09-17T15:30:25.439Z,51.20
2022-09-17T15:32:55.372Z,51.50
2022-09-17T15:35:28.190Z,51.60
2022-09-17T15:38:21.831Z,52.30
2022-09-17T15:40:45.536Z,52.20
2022-09-17T15:43:19.963Z,51.70
2022-09-17T15:45:47.849Z,51.90
2022-09-17T15:48:34.782Z,53.40
2022-09-17T15:51:04.879Z,53.10
2022-09-17T15:53:33.559Z,52.70
2022-09-17T15:56:05.170Z,52.90
2022-09-17T15:58:38.701Z,52.90
2022-09-17T16:01:47.374Z,53.60
2022-09-17T16:04:23.691Z,53.90
2022-09-17T16:06:58.839Z,54.10
2022-09-17T16:09:44.023Z,55.00
2022-09-17T16:12:14.419Z,56.00
2022-09-17T16:14:51.683Z,55.50
2022-09-17T16:17:44.713Z,56.30
2022-09-17T16:20:19.783Z,57.20
2022-09-17T16:22:48.870Z,56.70
2022-09-17T16:25:17.555Z,56.90
2022-09-17T16:27:49.899Z,57.10
2022-09-17T16:30:21.298Z,57.90
2022-09-17T16:32:49.367Z,59.00
2022-09-17T16:35:18.866Z,59.20
2022-09-17T16:37:50.039Z,59.70
2022-09-17T16:40:18.594Z,58.90
2022-09-17T16:42:46.854Z,58.40
2022-09-17T16:45:16.819Z,57.60
2022-09-17T16:47:45.941Z,57.30
2022-09-17T16:50:15.795Z,57.60
2022-09-17T16:52:44.651Z,58.30
2022-09-17T16:55:14.454Z,57.50
2022-09-17T16:57:42.281Z,58.10
2022-09-17T17:00:14.024Z,57.60
2022-09-17T17:02:41.865Z,57.30
2022-09-17T17:05:11.659Z,58.20
2022-09-17T17:07:39.404Z,59.10
2022-09-17T17:10:08.985Z,59.30
2022-09-17T17:12:37.282Z,58.80
2022-09-17T17:15:06.936Z,59.10
2022-09-17T17:17:35.832Z,59.90
2022-09-17T17:20:04.765Z,60.20
2022-09-17T17:22:34.083Z,60.10
2022-09-17T17:25:01.861Z,59.60
2022-09-17T17:27:30.082Z,59.10
2022-09-17T17:29:57.842Z,59.30
2022-09-17T17:32:25.647Z,60.30
2022-09-17T17:34:53.399Z,59.50
2022-09-17T17:37:23.139Z,59.90
2022-09-17T17:39:52.329Z,60.00
2022-09-17T17:42:20.145Z,59.60
2022-09-17T17:44:48.320Z,59.80
2022-09-17T17:47:16.288Z,60.50
2022-09-17T17:49:45.019Z,60.50
2022-09-17T17:52:12.780Z,60.30
2022-09-17T17:54:40.529Z,60.10
2022-09-17T17:57:10.400Z,60.10
2022-09-17T17:59:38.121Z,60.60
2022-09-17T18:02:06.007Z,60.40
2022-09-17T18:04:33.895Z,60.10
2022-09-17T18:07:01.666Z,60.50
2022-09-17T18:09:30.092Z,60.60
2022-09-17T18:11:57.911Z,60.10
2022-09-17T18:14:27.408Z,60.40
2022-09-17T18:16:55.345Z,60.90
2022-09-17T18:19:23.131Z,59.80
2022-09-17T18:21:51.460Z,59.80
2022-09-17T18:24:19.227Z,59.40
2022-09-17T18:26:47.583Z,60.00
2022-09-17T18:29:15.413Z,59.50
2022-09-17T18:31:45.153Z,59.60
2022-09-17T18:34:15.040Z,59.20
2022-09-17T18:36:48.753Z,59.90
2022-09-17T18:42:08.339Z,60.20
2022-09-17T18:44:36.129Z,60.70
2022-09-17T18:47:05.364Z,60.60
2022-09-17T18:49:33.107Z,60.40
2022-09-17T18:52:00.863Z,60.20
2022-09-17T18:54:28.665Z,60.20
2022-09-17T18:56:56.590Z,60.40
2022-09-17T18:59:24.379Z,60.20
2022-09-17T19:01:52.226Z,60.20
2022-09-17T19:04:21.367Z,60.10
2022-09-17T19:06:49.168Z,60.10
2022-09-17T19:09:17.061Z,59.80
2022-09-17T19:11:44.803Z,59.40
2022-09-17T19:14:12.563Z,59.40
2022-09-17T19:16:40.447Z,59.60
2022-09-17T19:19:08.265Z,59.00
2022-09-17T19:21:37.315Z,58.40
2022-09-17T19:24:05.493Z,58.30
2022-09-17T19:26:33.343Z,58.50
2022-09-17T19:29:01.250Z,58.90
2022-09-17T19:31:29.993Z,58.90
2022-09-17T19:33:59.520Z,58.60
2022-09-17T19:36:27.331Z,58.30
2022-09-17T19:38:58.508Z,58.00
2022-09-17T19:41:27.454Z,58.40
2022-09-17T19:43:56.823Z,57.90
2022-09-17T19:46:27.889Z,57.80
2022-09-17T19:48:58.400Z,57.80
2022-09-17T19:51:28.334Z,57.80
2022-09-17T19:53:57.987Z,57.70
2022-09-17T19:56:27.497Z,57.40
2022-09-17T19:58:55.287Z,57.60
2022-09-17T20:01:23.390Z,58.10
2022-09-17T20:03:53.063Z,57.20
2022-09-17T20:06:23.276Z,57.30
2022-09-17T20:08:52.361Z,57.40
2022-09-17T20:11:23.151Z,57.60
2022-09-17T20:13:51.453Z,57.50
2022-09-17T20:16:21.126Z,57.40
2022-09-17T20:18:49.867Z,57.30
2022-09-17T20:21:20.043Z,57.10
2022-09-17T20:23:47.940Z,57.20
2022-09-17T20:26:16.504Z,57.00
2022-09-17T20:28:45.921Z,57.50
2022-09-17T20:31:16.187Z,58.40
2022-09-17T20:33:44.438Z,57.30
2022-09-17T20:36:13.929Z,57.00
2022-09-17T20:39:10.587Z,56.90
2022-09-17T20:41:31.453Z,56.80
2022-09-17T20:44:00.703Z,56.70
2022-09-17T20:46:29.699Z,56.70
2022-09-17T20:48:58.613Z,57.00
2022-09-17T20:51:28.591Z,56.80
2022-09-17T20:53:57.828Z,57.00
2022-09-17T20:56:28.210Z,57.20
2022-09-17T20:59:03.333Z,57.20
2022-09-17T21:01:34.374Z,57.60
2022-09-17T21:04:03.328Z,58.20
2022-09-17T21:06:32.811Z,58.20
2022-09-17T21:09:01.219Z,57.50
2022-09-17T21:11:30.977Z,58.90
2022-09-17T21:14:00.071Z,57.90
2022-09-17T21:16:28.235Z,58.30
2022-09-17T21:18:58.500Z,58.50
2022-09-17T21:21:26.840Z,58.50
2022-09-17T21:23:55.116Z,58.60
2022-09-17T21:26:24.943Z,59.20
2022-09-17T21:28:55.229Z,58.90
2022-09-17T21:31:27.350Z,59.10
2022-09-17T21:34:02.101Z,59.10
2022-09-17T21:36:31.533Z,58.80
2022-09-17T21:39:01.208Z,58.90
2022-09-17T21:41:29.354Z,59.50
2022-09-17T21:43:57.128Z,60.00
2022-09-17T21:46:26.772Z,61.50
2022-09-17T21:48:56.332Z,60.20
2022-09-17T21:51:30.202Z,60.00
2022-09-17T21:54:00.859Z,59.60
2022-09-17T21:56:30.140Z,58.90
2022-09-17T21:58:59.802Z,58.80
2022-09-17T22:01:31.878Z,58.70
2022-09-17T22:04:01.950Z,58.90
2022-09-17T22:06:32.540Z,58.50
2022-09-17T22:09:02.153Z,58.30
2022-09-17T22:11:31.809Z,58.40
2022-09-17T22:14:04.694Z,58.00
2022-09-17T22:16:35.796Z,59.20
2022-09-17T22:19:04.843Z,59.30
2022-09-17T22:21:36.178Z,59.70
2022-09-17T22:24:06.436Z,59.50
2022-09-17T22:26:37.329Z,59.10
2022-09-17T22:29:07.580Z,59.00
2022-09-17T22:31:35.982Z,58.60
2022-09-17T22:34:07.713Z,58.50
2022-09-17T22:36:36.844Z,58.50
2022-09-17T22:39:05.506Z,58.50
2022-09-17T22:41:34.981Z,58.60
2022-09-17T22:44:05.032Z,58.80
2022-09-17T22:46:34.761Z,58.80
2022-09-17T22:49:02.832Z,58.60
2022-09-17T22:51:31.428Z,58.80
2022-09-17T22:54:01.464Z,58.70
2022-09-17T22:56:30.056Z,58.80
2022-09-17T22:58:58.547Z,58.60
2022-09-17T23:01:29.728Z,58.30
2022-09-17T23:03:58.746Z,58.50
2022-09-17T23:06:28.455Z,58.40
2022-09-17T23:08:56.393Z,58.80
2022-09-17T23:11:27.600Z,58.70
2022-09-17T23:13:58.314Z,58.90
2022-09-17T23:16:26.386Z,59.30
2022-09-17T23:18:54.227Z,58.80
2022-09-17T23:21:22.750Z,59.30
2022-09-17T23:23:52.057Z,59.70
2022-09-17T23:26:21.075Z,59.80
2022-09-17T23:28:50.865Z,60.00
2022-09-17T23:31:21.172Z,60.30
2022-09-17T23:33:49.460Z,60.00
2022-09-17T23:36:20.072Z,61.30
2022-09-17T23:38:49.084Z,61.70
2022-09-17T23:41:18.793Z,61.20
2022-09-17T23:43:48.184Z,62.00
2022-09-17T23:46:17.907Z,61.60
2022-09-17T23:48:46.403Z,61.20
2022-09-17T23:51:14.233Z,61.00
2022-09-17T23:53:42.018Z,61.60
2022-09-17T23:56:12.854Z,61.00
2022-09-17T23:58:41.068Z,61.00
